Point Fermin — WDE4178 — position and weather

sailwx.info

Track history (hours):
 
Tides and Currents Weather Stations Pressure Air Temp Water Temp Dewpoint Dewpoint Depression Visibility Wind Speed Wind Dir Waves Ship Positions

Point Fermin

Owner: Foss Maritime Company, Seattle, WA. More information available from US FCC via Universal Licensing System and Coast Guard Vessel Documentation Center.

Last reported at 2018-Jul-16 12:30 UTC. Time now 2018-Jul-16 12:48 UTC.
Position N 37°43' W 122°19'.

Length 32 m; draft 4.3 m.

Type: Towing. MMSI: 367349770.

Date/timePositionNaut miles runAvg speedWind from/ knotsBaromVisibWave heightAir tempDewpointWater temp
2018-Jul-16 12:30N 37°43' W 122°19'0 0.0
2018-Jul-16 12:00N 37°43' W 122°19'0 0.0
2018-Jul-16 11:31N 37°43' W 122°19'0 0.2
2018-Jul-16 11:01N 37°43' W 122°19'0 0.1
2018-Jul-16 10:31N 37°43' W 122°19'0 0.1
2018-Jul-16 10:00N 37°43' W 122°19'1 2.7
2018-Jul-16 09:30N 37°44' W 122°19'1 2.0
2018-Jul-16 09:00N 37°45' W 122°20'0 0.0
2018-Jul-16 08:28N 37°45' W 122°20'0 0.0
2018-Jul-16 07:58N 37°45' W 122°20'0 0.1
2018-Jul-16 07:28N 37°45' W 122°20'0 0.1
2018-Jul-16 06:58N 37°45' W 122°20'0 0.1
2018-Jul-16 06:28N 37°45' W 122°20'0 0.1
2018-Jul-16 05:58N 37°45' W 122°20'0 0.0
2018-Jul-16 05:28N 37°45' W 122°20'0 0.0
2018-Jul-16 04:58N 37°45' W 122°20'0 0.1
2018-Jul-16 04:28N 37°45' W 122°20'0 0.2
2018-Jul-16 03:58N 37°45' W 122°20'0 0.1
2018-Jul-16 03:28N 37°45' W 122°20'0 0.0
2018-Jul-16 02:52N 37°45' W 122°20'0 0.0
2018-Jul-16 02:28N 37°45' W 122°20'0 0.0
2018-Jul-16 01:58N 37°45' W 122°20'0 0.0
2018-Jul-16 01:28N 37°45' W 122°20'0 0.0
2018-Jul-16 00:58N 37°45' W 122°20'0 0.1
2018-Jul-16 00:28N 37°45' W 122°20'1 2.1
2018-Jul-16 00:00N 37°46' W 122°20'3 5.3
2018-Jul-15 23:30N 37°48' W 122°22'3 5.8
2018-Jul-15 23:00N 37°51' W 122°23'2 5.0
2018-Jul-15 22:30N 37°53' W 122°24'2 3.3
2018-Jul-15 22:00N 37°54' W 122°23'1 2.5
2018-Jul-15 21:30N 37°55' W 122°22'1 1.9
2018-Jul-15 21:00N 37°54' W 122°22'0 0.1
2018-Jul-15 20:30N 37°54' W 122°22'0 0.0
2018-Jul-15 20:00N 37°54' W 122°22'0 0.0
2018-Jul-15 19:30N 37°54' W 122°22'0 0.0
2018-Jul-15 19:00N 37°54' W 122°22'0 0.0
2018-Jul-15 18:30N 37°54' W 122°22'0 0.0
2018-Jul-15 18:00N 37°54' W 122°22'0 0.0
2018-Jul-15 17:30N 37°54' W 122°22'0 0.0
2018-Jul-15 17:00N 37°54' W 122°22'0 0.0
2018-Jul-15 16:30N 37°54' W 122°22'0 0.0
2018-Jul-15 16:00N 37°54' W 122°22'0 0.0
2018-Jul-15 15:30N 37°54' W 122°22'0 0.0
2018-Jul-15 15:00N 37°54' W 122°22'0 0.0
2018-Jul-15 14:30N 37°54' W 122°22'0 0.0
2018-Jul-15 14:00N 37°54' W 122°22'0 0.0
2018-Jul-15 13:30N 37°54' W 122°22'0 0.0
2018-Jul-15 13:00N 37°54' W 122°22'0 0.0
2018-Jul-15 12:30N 37°54' W 122°22'0 0.0
2018-Jul-15 12:00N 37°54' W 122°22'0 0.0
2018-Jul-15 11:30N 37°54' W 122°22'0 0.0
2018-Jul-15 11:00N 37°54' W 122°22'0 0.0
2018-Jul-15 10:30N 37°54' W 122°22'0 0.0
2018-Jul-15 09:59N 37°54' W 122°22'0 0.0
2018-Jul-15 09:30N 37°54' W 122°22'0 0.0
2018-Jul-15 09:00N 37°54' W 122°22'0 0.0
2018-Jul-15 08:30N 37°54' W 122°22'0 0.0
2018-Jul-15 08:00N 37°54' W 122°22'0 0.0
2018-Jul-15 07:30N 37°54' W 122°22'0 0.0
2018-Jul-15 07:00N 37°54' W 122°22'0 0.0
2018-Jul-15 06:30N 37°54' W 122°22'0 0.0
2018-Jul-15 06:00N 37°54' W 122°22'0 0.0
2018-Jul-15 05:30N 37°54' W 122°22'0 0.0
2018-Jul-15 05:00N 37°54' W 122°22'0 0.0
2018-Jul-15 04:30N 37°54' W 122°22'0 0.0
2018-Jul-15 04:00N 37°54' W 122°22'0 0.0
2018-Jul-15 03:30N 37°54' W 122°22'0 0.0
2018-Jul-15 03:00N 37°54' W 122°22'0 0.0
2018-Jul-15 02:30N 37°54' W 122°22'1 1.8
2018-Jul-15 02:00N 37°55' W 122°22'1 2.1
2018-Jul-15 01:30N 37°54' W 122°23'2 3.5
2018-Jul-15 01:00N 37°54' W 122°25'3 7.0
2018-Jul-15 00:30N 37°51' W 122°23'4 8.2
2018-Jul-15 00:00N 37°48' W 122°20'1 1.6
2018-Jul-14 23:30N 37°48' W 122°19'0 0.0
2018-Jul-14 23:00N 37°48' W 122°19'0 0.0
2018-Jul-14 22:30N 37°48' W 122°19'0 0.0
2018-Jul-14 22:00N 37°48' W 122°19'0 0.0
2018-Jul-14 21:30N 37°48' W 122°19'0 0.0
2018-Jul-14 21:00N 37°48' W 122°19'0 0.0
2018-Jul-14 20:30N 37°48' W 122°19'0 0.0
2018-Jul-14 20:00N 37°48' W 122°19'0 0.0
2018-Jul-14 19:30N 37°48' W 122°19'0 0.0
2018-Jul-14 19:00N 37°48' W 122°19'0 0.0
2018-Jul-14 18:30N 37°48' W 122°19'0 0.0
2018-Jul-14 18:00N 37°48' W 122°19'0 0.0
2018-Jul-14 17:30N 37°48' W 122°19'0 0.0
2018-Jul-14 17:00N 37°48' W 122°19'0 0.0
2018-Jul-14 16:30N 37°48' W 122°19'0 0.0
2018-Jul-14 16:00N 37°48' W 122°19'0 0.0
2018-Jul-14 15:30N 37°48' W 122°19'0 0.0
2018-Jul-14 15:00N 37°48' W 122°19'0 0.0
2018-Jul-14 14:30N 37°48' W 122°19'1 0.9
2018-Jul-14 13:30N 37°48' W 122°20'2 4.1
2018-Jul-14 13:00N 37°49' W 122°22'1 1.8
2018-Jul-14 12:30N 37°48' W 122°21'3 5.9
2018-Jul-14 12:00N 37°45' W 122°22'0 0.4
2018-Jul-14 11:29N 37°46' W 122°21'0 0.1
2018-Jul-14 10:59N 37°46' W 122°21'0 0.1
2018-Jul-14 10:29N 37°46' W 122°21'0 0.0
2018-Jul-14 09:59N 37°46' W 122°21'0 0.1
2018-Jul-14 09:29N 37°46' W 122°21'0 0.1
2018-Jul-14 08:56N 37°46' W 122°21'0 0.3
2018-Jul-14 08:29N 37°45' W 122°21'0 0.0
2018-Jul-14 07:56N 37°45' W 122°21'0 0.1
2018-Jul-14 07:29N 37°45' W 122°21'0 0.0
2018-Jul-14 06:59N 37°45' W 122°21'0 0.0
2018-Jul-14 06:29N 37°45' W 122°21'0 0.0
2018-Jul-14 05:59N 37°46' W 122°21'0 0.0
2018-Jul-14 05:29N 37°45' W 122°21'0 0.0
2018-Jul-14 04:59N 37°45' W 122°21'0 0.0
2018-Jul-14 04:29N 37°46' W 122°21'0 0.0
2018-Jul-14 03:59N 37°46' W 122°21'0 0.0
2018-Jul-14 03:29N 37°46' W 122°21'0 0.1
2018-Jul-14 03:00N 37°46' W 122°21'1 2.2
2018-Jul-14 02:30N 37°47' W 122°21'3 5.4
2018-Jul-14 02:00N 37°49' W 122°22'2 4.8
2018-Jul-14 01:30N 37°51' W 122°23'3 5.5
2018-Jul-14 01:00N 37°54' W 122°25'2 3.8
2018-Jul-14 00:30N 37°54' W 122°22'1 1.0
2018-Jul-14 00:00N 37°54' W 122°23'4 7.0
2018-Jul-13 23:30N 37°51' W 122°23'2 3.8
2018-Jul-13 23:00N 37°49' W 122°22'0 1.0
2018-Jul-13 22:30N 37°50' W 122°22'2 4.9
2018-Jul-13 22:00N 37°52' W 122°24'2 4.6
2018-Jul-13 21:30N 37°54' W 122°25'2 4.9
2018-Jul-13 21:00N 37°54' W 122°22'1 1.6
2018-Jul-13 20:30N 37°55' W 122°22'1 1.5
2018-Jul-13 19:58N 37°54' W 122°22'0 0.0
2018-Jul-13 19:25N 37°54' W 122°22'0 0.0
2018-Jul-13 18:58N 37°54' W 122°22'0 0.0
2018-Jul-13 18:28N 37°54' W 122°22'0 0.0
2018-Jul-13 17:58N 37°54' W 122°22'0 0.0
2018-Jul-13 17:28N 37°54' W 122°22'0 0.0
2018-Jul-13 16:58N 37°54' W 122°22'0 0.0
2018-Jul-13 16:28N 37°54' W 122°22'0 0.0
2018-Jul-13 15:58N 37°54' W 122°22'0 0.0
2018-Jul-13 15:28N 37°54' W 122°22'0 0.0
2018-Jul-13 14:58N 37°54' W 122°22'0 0.0
2018-Jul-13 13:55N 37°54' W 122°22'0 0.0
2018-Jul-13 13:28N 37°54' W 122°22'0 0.0
2018-Jul-13 12:58N 37°54' W 122°22'0 0.0
2018-Jul-13 12:28N 37°54' W 122°22'0 0.0
2018-Jul-13 11:58N 37°54' W 122°22'0 0.0
2018-Jul-13 11:28N 37°54' W 122°22'1 1.8
2018-Jul-13 11:00N 37°55' W 122°22'1 1.7
2018-Jul-13 10:30N 37°54' W 122°22'0 0.7
2018-Jul-13 09:58N 37°54' W 122°22'0 0.0
2018-Jul-13 09:28N 37°54' W 122°22'0 0.0
2018-Jul-13 08:58N 37°54' W 122°22'0 0.0
2018-Jul-13 08:28N 37°54' W 122°22'0 0.0
2018-Jul-13 07:58N 37°54' W 122°22'0 0.0
2018-Jul-13 07:28N 37°54' W 122°22'0 0.0
2018-Jul-13 06:58N 37°54' W 122°22'0 0.0
2018-Jul-13 06:28N 37°54' W 122°22'0 0.0
2018-Jul-13 05:58N 37°54' W 122°22'0 0.0
2018-Jul-13 05:28N 37°54' W 122°22'0 0.0
2018-Jul-13 04:58N 37°54' W 122°22'0 0.0
2018-Jul-13 04:28N 37°54' W 122°22'0 0.1
2018-Jul-13 04:00N 37°54' W 122°22'1 1.9
2018-Jul-13 03:30N 37°55' W 122°22'0 0.3
2018-Jul-13 03:01N 37°55' W 122°22'1 2.0
2018-Jul-13 02:30N 37°54' W 122°22'0 0.0
2018-Jul-13 02:00N 37°54' W 122°22'0 0.0
2018-Jul-13 01:30N 37°54' W 122°22'0 0.0
2018-Jul-13 01:00N 37°54' W 122°22'0 0.0
2018-Jul-13 00:27N 37°54' W 122°22'0 0.0
2018-Jul-13 00:00N 37°54' W 122°22'0 0.0
2018-Jul-12 23:30N 37°54' W 122°22'0 0.0
2018-Jul-12 23:00N 37°54' W 122°22'0 0.0
2018-Jul-12 22:30N 37°54' W 122°22'0 0.0
2018-Jul-12 21:57N 37°54' W 122°22'0 0.0
2018-Jul-12 21:30N 37°54' W 122°22'0 0.0
2018-Jul-12 21:00N 37°54' W 122°22'0 0.0
2018-Jul-12 20:30N 37°54' W 122°22'0 0.0
2018-Jul-12 20:00N 37°54' W 122°22'0 0.0
2018-Jul-12 19:30N 37°54' W 122°22'0 0.1
2018-Jul-12 18:59N 37°54' W 122°22'2 4.0
2018-Jul-12 18:30N 37°54' W 122°25'3 5.2
2018-Jul-12 18:00N 37°52' W 122°24'3 6.3
2018-Jul-12 17:30N 37°48' W 122°23'2 4.9
2018-Jul-12 17:00N 37°46' W 122°21'0 0.6
2018-Jul-12 16:30N 37°46' W 122°21'0 0.0
2018-Jul-12 16:00N 37°46' W 122°21'0 0.1
2018-Jul-12 15:30N 37°46' W 122°21'0 0.1
2018-Jul-12 15:00N 37°46' W 122°21'0 0.6
2018-Jul-12 14:30N 37°46' W 122°22'0 0.1
2018-Jul-12 14:00N 37°46' W 122°22'0 0.0
2018-Jul-12 13:30N 37°46' W 122°22'0 0.0
2018-Jul-12 13:00N 37°46' W 122°22'0 0.0
2018-Jul-12 12:30N 37°46' W 122°22'0 0.0
2018-Jul-12 12:00N 37°46' W 122°22'0 0.0
2018-Jul-12 11:24N 37°46' W 122°22'0 0.0
2018-Jul-12 10:54N 37°46' W 122°22'0 0.0
2018-Jul-12 10:30N 37°46' W 122°22'0 0.0
2018-Jul-12 10:00N 37°46' W 122°22'0 0.0
2018-Jul-12 09:30N 37°46' W 122°22'0 0.0
2018-Jul-12 09:00N 37°46' W 122°22'0 0.1
2018-Jul-12 08:30N 37°46' W 122°22'0 0.7
2018-Jul-12 08:00N 37°47' W 122°21'1 1.9
2018-Jul-12 07:30N 37°47' W 122°21'2 3.8
2018-Jul-12 07:00N 37°49' W 122°22'0 0.1
2018-Jul-12 06:30N 37°49' W 122°22'0 0.0
2018-Jul-12 05:59N 37°49' W 122°22'0 0.0
2018-Jul-12 05:29N 37°49' W 122°22'0 0.0
2018-Jul-12 04:59N 37°49' W 122°22'0 0.0
2018-Jul-12 04:26N 37°49' W 122°22'0 0.0
2018-Jul-12 03:56N 37°49' W 122°22'0 0.0
2018-Jul-12 03:23N 37°49' W 122°22'0 0.0
2018-Jul-12 02:59N 37°49' W 122°22'0 0.0
2018-Jul-12 02:26N 37°49' W 122°22'0 0.0
2018-Jul-12 01:59N 37°49' W 122°22'0 0.0
2018-Jul-12 01:29N 37°49' W 122°22'0 0.0
2018-Jul-12 00:59N 37°49' W 122°22'0 0.0
2018-Jul-12 00:29N 37°49' W 122°22'0 0.0
2018-Jul-11 23:59N 37°49' W 122°22'0 0.0
2018-Jul-11 23:29N 37°49' W 122°22'0 0.0
2018-Jul-11 22:59N 37°49' W 122°22'0 0.0
2018-Jul-11 22:29N 37°49' W 122°22'0 0.0
2018-Jul-11 21:59N 37°49' W 122°22'0 0.0
2018-Jul-11 21:29N 37°49' W 122°22'0 0.0
2018-Jul-11 20:59N 37°49' W 122°22'0 0.0
2018-Jul-11 20:29N 37°49' W 122°22'0 0.0
2018-Jul-11 19:56N 37°49' W 122°22'1 1.8
2018-Jul-11 19:30N 37°49' W 122°21'3 5.6
2018-Jul-11 19:00N 37°48' W 122°18'0 0.0
2018-Jul-11 18:30N 37°48' W 122°18'0 0.0
2018-Jul-11 17:59N 37°48' W 122°18'0 0.0
2018-Jul-11 17:23N 37°48' W 122°18'0 0.0
2018-Jul-11 16:59N 37°48' W 122°18'0 0.0
2018-Jul-11 16:29N 37°48' W 122°18'0 0.0
2018-Jul-11 15:59N 37°48' W 122°18'0 0.0
2018-Jul-11 15:29N 37°48' W 122°18'0 0.2
2018-Jul-11 15:00N 37°48' W 122°18'1 2.9
2018-Jul-11 14:30N 37°48' W 122°20'3 5.4
2018-Jul-11 14:00N 37°50' W 122°22'3 6.5
2018-Jul-11 13:30N 37°53' W 122°24'2 4.0
2018-Jul-11 13:00N 37°54' W 122°23'1 2.1
2018-Jul-11 12:30N 37°55' W 122°22'1 1.9
2018-Jul-11 12:00N 37°54' W 122°22'0 0.9
2018-Jul-11 11:30N 37°54' W 122°22'0 0.0
2018-Jul-11 10:54N 37°54' W 122°22'0 0.0
2018-Jul-11 10:18N 37°54' W 122°22'0 0.0
2018-Jul-11 10:00N 37°54' W 122°22'0 0.0
2018-Jul-11 09:30N 37°54' W 122°22'0 0.0
2018-Jul-11 08:54N 37°54' W 122°22'0 0.0
2018-Jul-11 08:30N 37°54' W 122°22'0 0.7
2018-Jul-11 08:00N 37°54' W 122°22'2 4.4
2018-Jul-11 07:30N 37°54' W 122°25'3 6.6
2018-Jul-11 07:00N 37°50' W 122°23'4 8.0
2018-Jul-11 06:30N 37°47' W 122°21'1 1.7
2018-Jul-11 06:00N 37°46' W 122°22'0 0.2
2018-Jul-11 05:29N 37°46' W 122°21'0 0.0
2018-Jul-11 04:59N 37°46' W 122°21'0 0.1
2018-Jul-11 04:29N 37°46' W 122°21'0 0.0
2018-Jul-11 03:59N 37°46' W 122°21'0 0.1
2018-Jul-11 03:29N 37°46' W 122°21'0 0.0
2018-Jul-11 02:59N 37°46' W 122°21'0 0.1
2018-Jul-11 02:29N 37°46' W 122°21'1 1.9
2018-Jul-11 02:00N 37°47' W 122°21'1 1.2
2018-Jul-11 01:30N 37°46' W 122°21'1 2.8
2018-Jul-11 01:01N 37°45' W 122°21'0 0.1
2018-Jul-11 00:27N 37°45' W 122°21'0 0.1
2018-Jul-10 23:57N 37°45' W 122°21'0 0.0
2018-Jul-10 23:21N 37°45' W 122°21'0 0.0
2018-Jul-10 23:00N 37°45' W 122°21'0 0.1
2018-Jul-10 22:30N 37°45' W 122°21'0 0.1
2018-Jul-10 22:00N 37°45' W 122°21'0 0.0
2018-Jul-10 21:30N 37°45' W 122°21'0 0.0
2018-Jul-10 21:00N 37°45' W 122°21'0 0.0
2018-Jul-10 20:30N 37°45' W 122°21'0 0.0
2018-Jul-10 20:00N 37°45' W 122°21'0 0.1
2018-Jul-10 19:27N 37°45' W 122°21'0 0.1
2018-Jul-10 19:00N 37°45' W 122°21'0 0.1
2018-Jul-10 18:27N 37°45' W 122°21'0 0.1
2018-Jul-10 18:00N 37°45' W 122°21'0 0.0
2018-Jul-10 17:30N 37°45' W 122°21'0 0.0
2018-Jul-10 17:00N 37°45' W 122°21'0 0.0
2018-Jul-10 16:27N 37°45' W 122°21'0 0.0
2018-Jul-10 16:00N 37°45' W 122°21'0 0.0
2018-Jul-10 15:30N 37°45' W 122°21'0 0.0
2018-Jul-10 14:57N 37°45' W 122°21'0 0.1
2018-Jul-10 14:30N 37°45' W 122°21'0 0.0
2018-Jul-10 14:00N 37°45' W 122°21'0 0.1
2018-Jul-10 13:30N 37°45' W 122°21'0 0.1
2018-Jul-10 13:00N 37°45' W 122°21'0 0.1
2018-Jul-10 12:30N 37°45' W 122°21'0 0.1
2018-Jul-10 12:00N 37°45' W 122°21'0 0.0
2018-Jul-10 11:30N 37°45' W 122°21'0 0.1
2018-Jul-10 10:57N 37°45' W 122°21'0 0.0
2018-Jul-10 10:27N 37°45' W 122°21'0 0.1
2018-Jul-10 10:00N 37°45' W 122°21'0 0.0
2018-Jul-10 09:30N 37°45' W 122°21'0 0.0
2018-Jul-10 09:00N 37°45' W 122°21'1 2.0
2018-Jul-10 08:30N 37°46' W 122°22'2 3.9
2018-Jul-10 08:00N 37°48' W 122°22'2 4.1
2018-Jul-10 07:30N 37°50' W 122°23'3 5.4
2018-Jul-10 07:00N 37°52' W 122°24'2 4.5
2018-Jul-10 06:30N 37°54' W 122°23'1 2.1
2018-Jul-10 06:00N 37°55' W 122°22'0 0.0
2018-Jul-10 05:30N 37°55' W 122°22'0 0.0
2018-Jul-10 05:00N 37°55' W 122°22'0 0.0
2018-Jul-10 04:30N 37°55' W 122°22'0 0.0
2018-Jul-10 04:00N 37°55' W 122°22'0 0.0
2018-Jul-10 03:30N 37°55' W 122°22'1 1.5
2018-Jul-10 02:59N 37°54' W 122°22'0 0.0
2018-Jul-10 02:30N 37°54' W 122°22'0 0.0
2018-Jul-10 01:59N 37°54' W 122°22'0 0.0
2018-Jul-10 01:30N 37°54' W 122°22'0 0.0
2018-Jul-10 01:00N 37°54' W 122°22'0 0.0
2018-Jul-10 00:30N 37°54' W 122°22'0 0.0
2018-Jul-10 00:00N 37°54' W 122°22'0 0.0
2018-Jul-09 23:30N 37°54' W 122°22'0 0.0
2018-Jul-09 23:00N 37°54' W 122°22'0 0.0
2018-Jul-09 22:30N 37°54' W 122°22'0 0.0
2018-Jul-09 22:00N 37°54' W 122°22'0 0.0
2018-Jul-09 21:30N 37°54' W 122°22'1 1.5
2018-Jul-09 20:59N 37°55' W 122°22'1 2.2
2018-Jul-09 20:30N 37°54' W 122°23'2 3.9
2018-Jul-09 20:00N 37°53' W 122°24'3 6.6
2018-Jul-09 19:30N 37°50' W 122°22'4 7.3
2018-Jul-09 19:00N 37°48' W 122°19'1 1.0
2018-Jul-09 18:30N 37°48' W 122°18'0 0.0
2018-Jul-09 18:00N 37°48' W 122°18'0 0.0
2018-Jul-09 17:30N 37°48' W 122°18'0 0.0
2018-Jul-09 17:00N 37°48' W 122°18'0 0.0
2018-Jul-09 16:30N 37°48' W 122°18'0 0.0
2018-Jul-09 16:00N 37°48' W 122°18'0 0.0
2018-Jul-09 15:30N 37°48' W 122°18'0 0.0
2018-Jul-09 15:00N 37°48' W 122°18'0 0.0
2018-Jul-09 14:30N 37°48' W 122°18'2 4.6
2018-Jul-09 14:00N 37°48' W 122°21'0 0.4
2018-Jul-09 13:30N 37°47' W 122°21'0 0.4
2018-Jul-09 13:00N 37°48' W 122°21'1 2.3
2018-Jul-09 12:30N 37°49' W 122°21'3 6.8
2018-Jul-09 12:00N 37°52' W 122°24'3 5.8
2018-Jul-09 11:30N 37°54' W 122°24'2 4.3
2018-Jul-09 11:00N 37°55' W 122°22'1 1.7
2018-Jul-09 10:30N 37°54' W 122°22'0 0.1
2018-Jul-09 09:59N 37°54' W 122°22'0 0.0
2018-Jul-09 09:29N 37°54' W 122°22'0 0.0
2018-Jul-09 08:59N 37°54' W 122°22'0 0.0
2018-Jul-09 08:29N 37°54' W 122°22'0 0.0
2018-Jul-09 07:59N 37°54' W 122°22'0 0.0
2018-Jul-09 07:29N 37°54' W 122°22'0 0.0
2018-Jul-09 06:59N 37°54' W 122°22'0 0.0
2018-Jul-09 06:29N 37°54' W 122°22'0 0.0
2018-Jul-09 05:59N 37°54' W 122°22'0 0.0
2018-Jul-09 05:29N 37°54' W 122°22'0 0.0
2018-Jul-09 04:59N 37°54' W 122°22'0 0.0
2018-Jul-09 04:20N 37°54' W 122°22'0 0.3
2018-Jul-09 04:00N 37°54' W 122°22'0 0.7
2018-Jul-09 03:31N 37°54' W 122°22'2 4.5
2018-Jul-09 03:00N 37°53' W 122°24'4 7.3
2018-Jul-09 02:30N 37°49' W 122°22'3 5.9
2018-Jul-09 02:00N 37°48' W 122°19'0 0.1
2018-Jul-09 01:30N 37°48' W 122°19'0 0.0
2018-Jul-09 01:00N 37°48' W 122°19'0 0.0
2018-Jul-09 00:30N 37°48' W 122°19'0 0.0
2018-Jul-09 00:00N 37°48' W 122°19'0 0.0
2018-Jul-08 23:30N 37°48' W 122°19'0 0.0
2018-Jul-08 23:00N 37°48' W 122°19'0 0.0
2018-Jul-08 22:30N 37°48' W 122°19'0 0.0
2018-Jul-08 21:54N 37°48' W 122°19'0 0.0
2018-Jul-08 21:30N 37°48' W 122°19'0 0.0
2018-Jul-08 21:00N 37°48' W 122°19'0 0.0
2018-Jul-08 20:30N 37°48' W 122°19'0 0.0
2018-Jul-08 20:00N 37°48' W 122°19'0 0.0
2018-Jul-08 19:30N 37°48' W 122°19'0 0.0
2018-Jul-08 19:00N 37°48' W 122°19'0 0.0
2018-Jul-08 18:30N 37°48' W 122°19'0 0.0
2018-Jul-08 18:00N 37°48' W 122°19'0 0.0
2018-Jul-08 17:30N 37°48' W 122°19'0 0.0
2018-Jul-08 17:00N 37°48' W 122°19'0 0.0
2018-Jul-08 16:30N 37°48' W 122°19'0 0.0
2018-Jul-08 16:00N 37°48' W 122°19'0 0.0
2018-Jul-08 15:30N 37°48' W 122°19'0 0.0
2018-Jul-08 15:01N 37°48' W 122°19'1 2.9
2018-Jul-08 14:31N 37°48' W 122°20'3 6.2
2018-Jul-08 14:01N 37°51' W 122°23'3 5.7
2018-Jul-08 13:31N 37°53' W 122°25'2 3.3
2018-Jul-08 13:01N 37°55' W 122°24'1 2.8
2018-Jul-08 12:29N 37°54' W 122°22'0 0.1
2018-Jul-08 11:58N 37°54' W 122°22'0 0.0
2018-Jul-08 11:28N 37°54' W 122°22'0 0.0
2018-Jul-08 10:58N 37°54' W 122°22'0 0.0
2018-Jul-08 10:28N 37°54' W 122°22'0 0.0
2018-Jul-08 09:58N 37°54' W 122°22'0 0.0
2018-Jul-08 09:28N 37°54' W 122°22'0 0.0
2018-Jul-08 08:52N 37°54' W 122°22'0 0.0
2018-Jul-08 08:28N 37°54' W 122°22'0 0.0
2018-Jul-08 07:55N 37°54' W 122°22'0 0.0
2018-Jul-08 07:28N 37°54' W 122°22'0 0.0
2018-Jul-08 06:58N 37°54' W 122°22'0 0.0
2018-Jul-08 06:28N 37°54' W 122°22'0 0.0
2018-Jul-08 05:58N 37°54' W 122°22'0 0.0
2018-Jul-08 05:28N 37°54' W 122°22'0 0.0
2018-Jul-08 04:58N 37°54' W 122°22'0 0.0
2018-Jul-08 04:28N 37°54' W 122°22'0 0.0
2018-Jul-08 03:58N 37°54' W 122°22'0 0.0
2018-Jul-08 03:28N 37°54' W 122°22'0 0.0
2018-Jul-08 02:58N 37°54' W 122°22'0 0.4
2018-Jul-08 02:30N 37°54' W 122°22'1 2.0
2018-Jul-08 01:59N 37°55' W 122°22'1 1.8
2018-Jul-08 01:28N 37°54' W 122°22'0 0.0
2018-Jul-08 00:58N 37°54' W 122°22'0 0.0
2018-Jul-08 00:28N 37°54' W 122°22'0 0.0
2018-Jul-07 23:58N 37°54' W 122°22'0 0.0
2018-Jul-07 23:28N 37°54' W 122°22'0 0.0
2018-Jul-07 22:58N 37°54' W 122°22'0 0.0
2018-Jul-07 22:28N 37°54' W 122°22'0 0.0
2018-Jul-07 21:58N 37°54' W 122°22'0 0.0
2018-Jul-07 21:28N 37°54' W 122°22'0 0.0
2018-Jul-07 20:58N 37°54' W 122°22'0 0.0
2018-Jul-07 20:28N 37°54' W 122°22'0 0.0
2018-Jul-07 19:52N 37°54' W 122°22'0 0.0
2018-Jul-07 19:25N 37°54' W 122°22'0 0.0
2018-Jul-07 18:55N 37°54' W 122°22'0 0.0
2018-Jul-07 18:25N 37°54' W 122°22'0 0.0
2018-Jul-07 17:58N 37°54' W 122°22'0 0.0
2018-Jul-07 17:28N 37°54' W 122°22'0 0.0
2018-Jul-07 16:58N 37°54' W 122°22'0 0.0
2018-Jul-07 16:28N 37°54' W 122°22'0 0.0
2018-Jul-07 15:58N 37°54' W 122°22'0 0.0
2018-Jul-07 15:16N 37°54' W 122°22'0 0.0
2018-Jul-07 14:55N 37°54' W 122°22'0 0.0
2018-Jul-07 14:28N 37°54' W 122°22'0 0.0
2018-Jul-07 13:58N 37°54' W 122°22'0 0.0
2018-Jul-07 13:28N 37°54' W 122°22'0 0.0
2018-Jul-07 12:58N 37°54' W 122°22'0 0.0
2018-Jul-07 12:28N 37°54' W 122°22'0 0.0
2018-Jul-07 11:58N 37°54' W 122°22'0 0.0
2018-Jul-07 11:28N 37°54' W 122°22'0 0.0
2018-Jul-07 10:58N 37°54' W 122°22'1 1.7
2018-Jul-07 10:30N 37°55' W 122°22'0 0.4
2018-Jul-07 10:00N 37°55' W 122°22'1 2.3
2018-Jul-07 09:30N 37°54' W 122°23'3 5.2
2018-Jul-07 09:00N 37°52' W 122°24'4 7.6
2018-Jul-07 08:30N 37°49' W 122°21'1 0.9
2018-Jul-07 07:57N 37°48' W 122°20'0 0.0
2018-Jul-07 07:30N 37°48' W 122°20'0 0.0
2018-Jul-07 07:00N 37°48' W 122°20'0 0.0
2018-Jul-07 06:30N 37°48' W 122°20'0 0.0
2018-Jul-07 06:00N 37°48' W 122°20'0 0.0
2018-Jul-07 05:27N 37°48' W 122°20'0 0.0
2018-Jul-07 05:00N 37°48' W 122°20'0 0.0
2018-Jul-07 04:30N 37°48' W 122°20'0 0.0
2018-Jul-07 03:54N 37°48' W 122°20'0 0.0
2018-Jul-07 03:30N 37°48' W 122°20'0 0.0
2018-Jul-07 03:00N 37°48' W 122°20'0 0.0
2018-Jul-07 02:30N 37°48' W 122°20'0 0.0
2018-Jul-07 02:00N 37°48' W 122°20'0 0.0
2018-Jul-07 01:24N 37°48' W 122°20'0 0.0
2018-Jul-07 01:00N 37°48' W 122°20'0 0.0
2018-Jul-07 00:30N 37°49' W 122°20'1 1.4
2018-Jul-07 00:00N 37°49' W 122°21'1 1.0
2018-Jul-06 23:30N 37°49' W 122°21'0 0.5
2018-Jul-06 23:00N 37°49' W 122°22'5 9.2
2018-Jul-06 22:30N 37°53' W 122°24'2 3.6
2018-Jul-06 22:00N 37°54' W 122°22'0 0.0
2018-Jul-06 21:30N 37°54' W 122°22'0 0.0
2018-Jul-06 21:00N 37°54' W 122°22'0 0.0
2018-Jul-06 20:30N 37°54' W 122°22'0 0.0
2018-Jul-06 19:59N 37°54' W 122°22'1 1.7
2018-Jul-06 19:30N 37°55' W 122°22'1 1.7
2018-Jul-06 19:00N 37°54' W 122°22'0 0.0
2018-Jul-06 18:30N 37°54' W 122°22'0 0.0
2018-Jul-06 18:00N 37°54' W 122°22'0 0.0
2018-Jul-06 17:30N 37°54' W 122°22'0 0.0
2018-Jul-06 17:00N 37°54' W 122°22'0 0.0
2018-Jul-06 16:30N 37°54' W 122°22'0 0.0
2018-Jul-06 15:58N 37°54' W 122°22'0 0.0
2018-Jul-06 15:30N 37°54' W 122°22'0 0.0
2018-Jul-06 15:00N 37°54' W 122°22'0 0.0
2018-Jul-06 14:30N 37°54' W 122°22'0 0.0
2018-Jul-06 14:00N 37°54' W 122°22'0 0.0
2018-Jul-06 13:30N 37°54' W 122°22'0 0.0
2018-Jul-06 13:00N 37°54' W 122°22'  
Track history (hours):
 
Tides and Currents Weather Stations Pressure Air Temp Water Temp Dewpoint Dewpoint Depression Visibility Wind Speed Wind Dir Waves Ship Positions

Point Fermin

Owner: Foss Maritime Company, Seattle, WA. More information available from US FCC via Universal Licensing System and Coast Guard Vessel Documentation Center.

Last reported at 2018-Jul-16 12:30 UTC. Time now 2018-Jul-16 12:48 UTC.
Position N 37°43' W 122°19'.

Length 32 m; draft 4.3 m.

Type: Towing. MMSI: 367349770.

Date/timePositionNaut miles runAvg speedWind from/ knotsBaromVisibWave heightAir tempDewpointWater temp
2018-Jul-16 12:30N 37°43' W 122°19'0 0.0
2018-Jul-16 12:00N 37°43' W 122°19'0 0.0
2018-Jul-16 11:31N 37°43' W 122°19'0 0.2
2018-Jul-16 11:01N 37°43' W 122°19'0 0.1
2018-Jul-16 10:31N 37°43' W 122°19'0 0.1
2018-Jul-16 10:00N 37°43' W 122°19'1 2.7
2018-Jul-16 09:30N 37°44' W 122°19'1 2.0
2018-Jul-16 09:00N 37°45' W 122°20'0 0.0
2018-Jul-16 08:28N 37°45' W 122°20'0 0.0
2018-Jul-16 07:58N 37°45' W 122°20'0 0.1
2018-Jul-16 07:28N 37°45' W 122°20'0 0.1
2018-Jul-16 06:58N 37°45' W 122°20'0 0.1
2018-Jul-16 06:28N 37°45' W 122°20'0 0.1
2018-Jul-16 05:58N 37°45' W 122°20'0 0.0
2018-Jul-16 05:28N 37°45' W 122°20'0 0.0
2018-Jul-16 04:58N 37°45' W 122°20'0 0.1
2018-Jul-16 04:28N 37°45' W 122°20'0 0.2
2018-Jul-16 03:58N 37°45' W 122°20'0 0.1
2018-Jul-16 03:28N 37°45' W 122°20'0 0.0
2018-Jul-16 02:52N 37°45' W 122°20'0 0.0
2018-Jul-16 02:28N 37°45' W 122°20'0 0.0
2018-Jul-16 01:58N 37°45' W 122°20'0 0.0
2018-Jul-16 01:28N 37°45' W 122°20'0 0.0
2018-Jul-16 00:58N 37°45' W 122°20'0 0.1
2018-Jul-16 00:28N 37°45' W 122°20'1 2.1
2018-Jul-16 00:00N 37°46' W 122°20'3 5.3
2018-Jul-15 23:30N 37°48' W 122°22'3 5.8
2018-Jul-15 23:00N 37°51' W 122°23'2 5.0
2018-Jul-15 22:30N 37°53' W 122°24'2 3.3
2018-Jul-15 22:00N 37°54' W 122°23'1 2.5
2018-Jul-15 21:30N 37°55' W 122°22'1 1.9
2018-Jul-15 21:00N 37°54' W 122°22'0 0.1
2018-Jul-15 20:30N 37°54' W 122°22'0 0.0
2018-Jul-15 20:00N 37°54' W 122°22'0 0.0
2018-Jul-15 19:30N 37°54' W 122°22'0 0.0
2018-Jul-15 19:00N 37°54' W 122°22'0 0.0
2018-Jul-15 18:30N 37°54' W 122°22'0 0.0
2018-Jul-15 18:00N 37°54' W 122°22'0 0.0
2018-Jul-15 17:30N 37°54' W 122°22'0 0.0
2018-Jul-15 17:00N 37°54' W 122°22'0 0.0
2018-Jul-15 16:30N 37°54' W 122°22'0 0.0
2018-Jul-15 16:00N 37°54' W 122°22'0 0.0
2018-Jul-15 15:30N 37°54' W 122°22'0 0.0
2018-Jul-15 15:00N 37°54' W 122°22'0 0.0
2018-Jul-15 14:30N 37°54' W 122°22'0 0.0
2018-Jul-15 14:00N 37°54' W 122°22'0 0.0
2018-Jul-15 13:30N 37°54' W 122°22'0 0.0
2018-Jul-15 13:00N 37°54' W 122°22'0 0.0
2018-Jul-15 12:30N 37°54' W 122°22'0 0.0
2018-Jul-15 12:00N 37°54' W 122°22'0 0.0
2018-Jul-15 11:30N 37°54' W 122°22'0 0.0
2018-Jul-15 11:00N 37°54' W 122°22'0 0.0
2018-Jul-15 10:30N 37°54' W 122°22'0 0.0
2018-Jul-15 09:59N 37°54' W 122°22'0 0.0
2018-Jul-15 09:30N 37°54' W 122°22'0 0.0
2018-Jul-15 09:00N 37°54' W 122°22'0 0.0
2018-Jul-15 08:30N 37°54' W 122°22'0 0.0
2018-Jul-15 08:00N 37°54' W 122°22'0 0.0
2018-Jul-15 07:30N 37°54' W 122°22'0 0.0
2018-Jul-15 07:00N 37°54' W 122°22'0 0.0
2018-Jul-15 06:30N 37°54' W 122°22'0 0.0
2018-Jul-15 06:00N 37°54' W 122°22'0 0.0
2018-Jul-15 05:30N 37°54' W 122°22'0 0.0
2018-Jul-15 05:00N 37°54' W 122°22'0 0.0
2018-Jul-15 04:30N 37°54' W 122°22'0 0.0
2018-Jul-15 04:00N 37°54' W 122°22'0 0.0
2018-Jul-15 03:30N 37°54' W 122°22'0 0.0
2018-Jul-15 03:00N 37°54' W 122°22'0 0.0
2018-Jul-15 02:30N 37°54' W 122°22'1 1.8
2018-Jul-15 02:00N 37°55' W 122°22'1 2.1
2018-Jul-15 01:30N 37°54' W 122°23'2 3.5
2018-Jul-15 01:00N 37°54' W 122°25'3 7.0
2018-Jul-15 00:30N 37°51' W 122°23'4 8.2
2018-Jul-15 00:00N 37°48' W 122°20'1 1.6
2018-Jul-14 23:30N 37°48' W 122°19'0 0.0
2018-Jul-14 23:00N 37°48' W 122°19'0 0.0
2018-Jul-14 22:30N 37°48' W 122°19'0 0.0
2018-Jul-14 22:00N 37°48' W 122°19'0 0.0
2018-Jul-14 21:30N 37°48' W 122°19'0 0.0
2018-Jul-14 21:00N 37°48' W 122°19'0 0.0
2018-Jul-14 20:30N 37°48' W 122°19'0 0.0
2018-Jul-14 20:00N 37°48' W 122°19'0 0.0
2018-Jul-14 19:30N 37°48' W 122°19'0 0.0
2018-Jul-14 19:00N 37°48' W 122°19'0 0.0
2018-Jul-14 18:30N 37°48' W 122°19'0 0.0
2018-Jul-14 18:00N 37°48' W 122°19'0 0.0
2018-Jul-14 17:30N 37°48' W 122°19'0 0.0
2018-Jul-14 17:00N 37°48' W 122°19'0 0.0
2018-Jul-14 16:30N 37°48' W 122°19'0 0.0
2018-Jul-14 16:00N 37°48' W 122°19'0 0.0
2018-Jul-14 15:30N 37°48' W 122°19'0 0.0
2018-Jul-14 15:00N 37°48' W 122°19'0 0.0
2018-Jul-14 14:30N 37°48' W 122°19'1 0.9
2018-Jul-14 13:30N 37°48' W 122°20'2 4.1
2018-Jul-14 13:00N 37°49' W 122°22'1 1.8
2018-Jul-14 12:30N 37°48' W 122°21'3 5.9
2018-Jul-14 12:00N 37°45' W 122°22'0 0.4
2018-Jul-14 11:29N 37°46' W 122°21'0 0.1
2018-Jul-14 10:59N 37°46' W 122°21'0 0.1
2018-Jul-14 10:29N 37°46' W 122°21'0 0.0
2018-Jul-14 09:59N 37°46' W 122°21'0 0.1
2018-Jul-14 09:29N 37°46' W 122°21'0 0.1
2018-Jul-14 08:56N 37°46' W 122°21'0 0.3
2018-Jul-14 08:29N 37°45' W 122°21'0 0.0
2018-Jul-14 07:56N 37°45' W 122°21'0 0.1
2018-Jul-14 07:29N 37°45' W 122°21'0 0.0
2018-Jul-14 06:59N 37°45' W 122°21'0 0.0
2018-Jul-14 06:29N 37°45' W 122°21'0 0.0
2018-Jul-14 05:59N 37°46' W 122°21'0 0.0
2018-Jul-14 05:29N 37°45' W 122°21'0 0.0
2018-Jul-14 04:59N 37°45' W 122°21'0 0.0
2018-Jul-14 04:29N 37°46' W 122°21'0 0.0
2018-Jul-14 03:59N 37°46' W 122°21'0 0.0
2018-Jul-14 03:29N 37°46' W 122°21'0 0.1
2018-Jul-14 03:00N 37°46' W 122°21'1 2.2
2018-Jul-14 02:30N 37°47' W 122°21'3 5.4
2018-Jul-14 02:00N 37°49' W 122°22'2 4.8
2018-Jul-14 01:30N 37°51' W 122°23'3 5.5
2018-Jul-14 01:00N 37°54' W 122°25'2 3.8
2018-Jul-14 00:30N 37°54' W 122°22'1 1.0
2018-Jul-14 00:00N 37°54' W 122°23'4 7.0
2018-Jul-13 23:30N 37°51' W 122°23'2 3.8
2018-Jul-13 23:00N 37°49' W 122°22'0 1.0
2018-Jul-13 22:30N 37°50' W 122°22'2 4.9
2018-Jul-13 22:00N 37°52' W 122°24'2 4.6
2018-Jul-13 21:30N 37°54' W 122°25'2 4.9
2018-Jul-13 21:00N 37°54' W 122°22'1 1.6
2018-Jul-13 20:30N 37°55' W 122°22'1 1.5
2018-Jul-13 19:58N 37°54' W 122°22'0 0.0
2018-Jul-13 19:25N 37°54' W 122°22'0 0.0
2018-Jul-13 18:58N 37°54' W 122°22'0 0.0
2018-Jul-13 18:28N 37°54' W 122°22'0 0.0
2018-Jul-13 17:58N 37°54' W 122°22'0 0.0
2018-Jul-13 17:28N 37°54' W 122°22'0 0.0
2018-Jul-13 16:58N 37°54' W 122°22'0 0.0
2018-Jul-13 16:28N 37°54' W 122°22'0 0.0
2018-Jul-13 15:58N 37°54' W 122°22'0 0.0
2018-Jul-13 15:28N 37°54' W 122°22'0 0.0
2018-Jul-13 14:58N 37°54' W 122°22'0 0.0
2018-Jul-13 13:55N 37°54' W 122°22'0 0.0
2018-Jul-13 13:28N 37°54' W 122°22'0 0.0
2018-Jul-13 12:58N 37°54' W 122°22'0 0.0
2018-Jul-13 12:28N 37°54' W 122°22'0 0.0
2018-Jul-13 11:58N 37°54' W 122°22'0 0.0
2018-Jul-13 11:28N 37°54' W 122°22'1 1.8
2018-Jul-13 11:00N 37°55' W 122°22'1 1.7
2018-Jul-13 10:30N 37°54' W 122°22'0 0.7
2018-Jul-13 09:58N 37°54' W 122°22'0 0.0
2018-Jul-13 09:28N 37°54' W 122°22'0 0.0
2018-Jul-13 08:58N 37°54' W 122°22'0 0.0
2018-Jul-13 08:28N 37°54' W 122°22'0 0.0
2018-Jul-13 07:58N 37°54' W 122°22'0 0.0
2018-Jul-13 07:28N 37°54' W 122°22'0 0.0
2018-Jul-13 06:58N 37°54' W 122°22'0 0.0
2018-Jul-13 06:28N 37°54' W 122°22'0 0.0
2018-Jul-13 05:58N 37°54' W 122°22'0 0.0
2018-Jul-13 05:28N 37°54' W 122°22'0 0.0
2018-Jul-13 04:58N 37°54' W 122°22'0 0.0
2018-Jul-13 04:28N 37°54' W 122°22'0 0.1
2018-Jul-13 04:00N 37°54' W 122°22'1 1.9
2018-Jul-13 03:30N 37°55' W 122°22'0 0.3
2018-Jul-13 03:01N 37°55' W 122°22'1 2.0
2018-Jul-13 02:30N 37°54' W 122°22'0 0.0
2018-Jul-13 02:00N 37°54' W 122°22'0 0.0
2018-Jul-13 01:30N 37°54' W 122°22'0 0.0
2018-Jul-13 01:00N 37°54' W 122°22'0 0.0
2018-Jul-13 00:27N 37°54' W 122°22'0 0.0
2018-Jul-13 00:00N 37°54' W 122°22'0 0.0
2018-Jul-12 23:30N 37°54' W 122°22'0 0.0
2018-Jul-12 23:00N 37°54' W 122°22'0 0.0
2018-Jul-12 22:30N 37°54' W 122°22'0 0.0
2018-Jul-12 21:57N 37°54' W 122°22'0 0.0
2018-Jul-12 21:30N 37°54' W 122°22'0 0.0
2018-Jul-12 21:00N 37°54' W 122°22'0 0.0
2018-Jul-12 20:30N 37°54' W 122°22'0 0.0
2018-Jul-12 20:00N 37°54' W 122°22'0 0.0
2018-Jul-12 19:30N 37°54' W 122°22'0 0.1
2018-Jul-12 18:59N 37°54' W 122°22'2 4.0
2018-Jul-12 18:30N 37°54' W 122°25'3 5.2
2018-Jul-12 18:00N 37°52' W 122°24'3 6.3
2018-Jul-12 17:30N 37°48' W 122°23'2 4.9
2018-Jul-12 17:00N 37°46' W 122°21'0 0.6
2018-Jul-12 16:30N 37°46' W 122°21'0 0.0
2018-Jul-12 16:00N 37°46' W 122°21'0 0.1
2018-Jul-12 15:30N 37°46' W 122°21'0 0.1
2018-Jul-12 15:00N 37°46' W 122°21'0 0.6
2018-Jul-12 14:30N 37°46' W 122°22'0 0.1
2018-Jul-12 14:00N 37°46' W 122°22'0 0.0
2018-Jul-12 13:30N 37°46' W 122°22'0 0.0
2018-Jul-12 13:00N 37°46' W 122°22'0 0.0
2018-Jul-12 12:30N 37°46' W 122°22'0 0.0
2018-Jul-12 12:00N 37°46' W 122°22'0 0.0
2018-Jul-12 11:24N 37°46' W 122°22'0 0.0
2018-Jul-12 10:54N 37°46' W 122°22'0 0.0
2018-Jul-12 10:30N 37°46' W 122°22'0 0.0
2018-Jul-12 10:00N 37°46' W 122°22'0 0.0
2018-Jul-12 09:30N 37°46' W 122°22'0 0.0
2018-Jul-12 09:00N 37°46' W 122°22'0 0.1
2018-Jul-12 08:30N 37°46' W 122°22'0 0.7
2018-Jul-12 08:00N 37°47' W 122°21'1 1.9
2018-Jul-12 07:30N 37°47' W 122°21'2 3.8
2018-Jul-12 07:00N 37°49' W 122°22'0 0.1
2018-Jul-12 06:30N 37°49' W 122°22'0 0.0
2018-Jul-12 05:59N 37°49' W 122°22'0 0.0
2018-Jul-12 05:29N 37°49' W 122°22'0 0.0
2018-Jul-12 04:59N 37°49' W 122°22'0 0.0
2018-Jul-12 04:26N 37°49' W 122°22'0 0.0
2018-Jul-12 03:56N 37°49' W 122°22'0 0.0
2018-Jul-12 03:23N 37°49' W 122°22'0 0.0
2018-Jul-12 02:59N 37°49' W 122°22'0 0.0
2018-Jul-12 02:26N 37°49' W 122°22'0 0.0
2018-Jul-12 01:59N 37°49' W 122°22'0 0.0
2018-Jul-12 01:29N 37°49' W 122°22'0 0.0
2018-Jul-12 00:59N 37°49' W 122°22'0 0.0
2018-Jul-12 00:29N 37°49' W 122°22'0 0.0
2018-Jul-11 23:59N 37°49' W 122°22'0 0.0
2018-Jul-11 23:29N 37°49' W 122°22'0 0.0
2018-Jul-11 22:59N 37°49' W 122°22'0 0.0
2018-Jul-11 22:29N 37°49' W 122°22'0 0.0
2018-Jul-11 21:59N 37°49' W 122°22'0 0.0
2018-Jul-11 21:29N 37°49' W 122°22'0 0.0
2018-Jul-11 20:59N 37°49' W 122°22'0 0.0
2018-Jul-11 20:29N 37°49' W 122°22'0 0.0
2018-Jul-11 19:56N 37°49' W 122°22'1 1.8
2018-Jul-11 19:30N 37°49' W 122°21'3 5.6
2018-Jul-11 19:00N 37°48' W 122°18'0 0.0
2018-Jul-11 18:30N 37°48' W 122°18'0 0.0
2018-Jul-11 17:59N 37°48' W 122°18'0 0.0
2018-Jul-11 17:23N 37°48' W 122°18'0 0.0
2018-Jul-11 16:59N 37°48' W 122°18'0 0.0
2018-Jul-11 16:29N 37°48' W 122°18'0 0.0
2018-Jul-11 15:59N 37°48' W 122°18'0 0.0
2018-Jul-11 15:29N 37°48' W 122°18'0 0.2
2018-Jul-11 15:00N 37°48' W 122°18'1 2.9
2018-Jul-11 14:30N 37°48' W 122°20'3 5.4
2018-Jul-11 14:00N 37°50' W 122°22'3 6.5
2018-Jul-11 13:30N 37°53' W 122°24'2 4.0
2018-Jul-11 13:00N 37°54' W 122°23'1 2.1
2018-Jul-11 12:30N 37°55' W 122°22'1 1.9
2018-Jul-11 12:00N 37°54' W 122°22'0 0.9
2018-Jul-11 11:30N 37°54' W 122°22'0 0.0
2018-Jul-11 10:54N 37°54' W 122°22'0 0.0
2018-Jul-11 10:18N 37°54' W 122°22'0 0.0
2018-Jul-11 10:00N 37°54' W 122°22'0 0.0
2018-Jul-11 09:30N 37°54' W 122°22'0 0.0
2018-Jul-11 08:54N 37°54' W 122°22'0 0.0
2018-Jul-11 08:30N 37°54' W 122°22'0 0.7
2018-Jul-11 08:00N 37°54' W 122°22'2 4.4
2018-Jul-11 07:30N 37°54' W 122°25'3 6.6
2018-Jul-11 07:00N 37°50' W 122°23'4 8.0
2018-Jul-11 06:30N 37°47' W 122°21'1 1.7
2018-Jul-11 06:00N 37°46' W 122°22'0 0.2
2018-Jul-11 05:29N 37°46' W 122°21'0 0.0
2018-Jul-11 04:59N 37°46' W 122°21'0 0.1
2018-Jul-11 04:29N 37°46' W 122°21'0 0.0
2018-Jul-11 03:59N 37°46' W 122°21'0 0.1
2018-Jul-11 03:29N 37°46' W 122°21'0 0.0
2018-Jul-11 02:59N 37°46' W 122°21'0 0.1
2018-Jul-11 02:29N 37°46' W 122°21'1 1.9
2018-Jul-11 02:00N 37°47' W 122°21'1 1.2
2018-Jul-11 01:30N 37°46' W 122°21'1 2.8
2018-Jul-11 01:01N 37°45' W 122°21'0 0.1
2018-Jul-11 00:27N 37°45' W 122°21'0 0.1
2018-Jul-10 23:57N 37°45' W 122°21'0 0.0
2018-Jul-10 23:21N 37°45' W 122°21'0 0.0
2018-Jul-10 23:00N 37°45' W 122°21'0 0.1
2018-Jul-10 22:30N 37°45' W 122°21'0 0.1
2018-Jul-10 22:00N 37°45' W 122°21'0 0.0
2018-Jul-10 21:30N 37°45' W 122°21'0 0.0
2018-Jul-10 21:00N 37°45' W 122°21'0 0.0
2018-Jul-10 20:30N 37°45' W 122°21'0 0.0
2018-Jul-10 20:00N 37°45' W 122°21'0 0.1
2018-Jul-10 19:27N 37°45' W 122°21'0 0.1
2018-Jul-10 19:00N 37°45' W 122°21'0 0.1
2018-Jul-10 18:27N 37°45' W 122°21'0 0.1
2018-Jul-10 18:00N 37°45' W 122°21'0 0.0
2018-Jul-10 17:30N 37°45' W 122°21'0 0.0
2018-Jul-10 17:00N 37°45' W 122°21'0 0.0
2018-Jul-10 16:27N 37°45' W 122°21'0 0.0
2018-Jul-10 16:00N 37°45' W 122°21'0 0.0
2018-Jul-10 15:30N 37°45' W 122°21'0 0.0
2018-Jul-10 14:57N 37°45' W 122°21'0 0.1
2018-Jul-10 14:30N 37°45' W 122°21'0 0.0
2018-Jul-10 14:00N 37°45' W 122°21'0 0.1
2018-Jul-10 13:30N 37°45' W 122°21'0 0.1
2018-Jul-10 13:00N 37°45' W 122°21'0 0.1
2018-Jul-10 12:30N 37°45' W 122°21'0 0.1
2018-Jul-10 12:00N 37°45' W 122°21'0 0.0
2018-Jul-10 11:30N 37°45' W 122°21'0 0.1
2018-Jul-10 10:57N 37°45' W 122°21'0 0.0
2018-Jul-10 10:27N 37°45' W 122°21'0 0.1
2018-Jul-10 10:00N 37°45' W 122°21'0 0.0
2018-Jul-10 09:30N 37°45' W 122°21'0 0.0
2018-Jul-10 09:00N 37°45' W 122°21'1 2.0
2018-Jul-10 08:30N 37°46' W 122°22'2 3.9
2018-Jul-10 08:00N 37°48' W 122°22'2 4.1
2018-Jul-10 07:30N 37°50' W 122°23'3 5.4
2018-Jul-10 07:00N 37°52' W 122°24'2 4.5
2018-Jul-10 06:30N 37°54' W 122°23'1 2.1
2018-Jul-10 06:00N 37°55' W 122°22'0 0.0
2018-Jul-10 05:30N 37°55' W 122°22'0 0.0
2018-Jul-10 05:00N 37°55' W 122°22'0 0.0
2018-Jul-10 04:30N 37°55' W 122°22'0 0.0
2018-Jul-10 04:00N 37°55' W 122°22'0 0.0
2018-Jul-10 03:30N 37°55' W 122°22'1 1.5
2018-Jul-10 02:59N 37°54' W 122°22'0 0.0
2018-Jul-10 02:30N 37°54' W 122°22'0 0.0
2018-Jul-10 01:59N 37°54' W 122°22'0 0.0
2018-Jul-10 01:30N 37°54' W 122°22'0 0.0
2018-Jul-10 01:00N 37°54' W 122°22'0 0.0
2018-Jul-10 00:30N 37°54' W 122°22'0 0.0
2018-Jul-10 00:00N 37°54' W 122°22'0 0.0
2018-Jul-09 23:30N 37°54' W 122°22'0 0.0
2018-Jul-09 23:00N 37°54' W 122°22'0 0.0
2018-Jul-09 22:30N 37°54' W 122°22'0 0.0
2018-Jul-09 22:00N 37°54' W 122°22'0 0.0
2018-Jul-09 21:30N 37°54' W 122°22'1 1.5
2018-Jul-09 20:59N 37°55' W 122°22'1 2.2
2018-Jul-09 20:30N 37°54' W 122°23'2 3.9
2018-Jul-09 20:00N 37°53' W 122°24'3 6.6
2018-Jul-09 19:30N 37°50' W 122°22'4 7.3
2018-Jul-09 19:00N 37°48' W 122°19'1 1.0
2018-Jul-09 18:30N 37°48' W 122°18'0 0.0
2018-Jul-09 18:00N 37°48' W 122°18'0 0.0
2018-Jul-09 17:30N 37°48' W 122°18'0 0.0
2018-Jul-09 17:00N 37°48' W 122°18'0 0.0
2018-Jul-09 16:30N 37°48' W 122°18'0 0.0
2018-Jul-09 16:00N 37°48' W 122°18'0 0.0
2018-Jul-09 15:30N 37°48' W 122°18'0 0.0
2018-Jul-09 15:00N 37°48' W 122°18'0 0.0
2018-Jul-09 14:30N 37°48' W 122°18'2 4.6
2018-Jul-09 14:00N 37°48' W 122°21'0 0.4
2018-Jul-09 13:30N 37°47' W 122°21'0 0.4
2018-Jul-09 13:00N 37°48' W 122°21'1 2.3
2018-Jul-09 12:30N 37°49' W 122°21'3 6.8
2018-Jul-09 12:00N 37°52' W 122°24'3 5.8
2018-Jul-09 11:30N 37°54' W 122°24'2 4.3
2018-Jul-09 11:00N 37°55' W 122°22'1 1.7
2018-Jul-09 10:30N 37°54' W 122°22'0 0.1
2018-Jul-09 09:59N 37°54' W 122°22'0 0.0
2018-Jul-09 09:29N 37°54' W 122°22'0 0.0
2018-Jul-09 08:59N 37°54' W 122°22'0 0.0
2018-Jul-09 08:29N 37°54' W 122°22'0 0.0
2018-Jul-09 07:59N 37°54' W 122°22'0 0.0
2018-Jul-09 07:29N 37°54' W 122°22'0 0.0
2018-Jul-09 06:59N 37°54' W 122°22'0 0.0
2018-Jul-09 06:29N 37°54' W 122°22'0 0.0
2018-Jul-09 05:59N 37°54' W 122°22'0 0.0
2018-Jul-09 05:29N 37°54' W 122°22'0 0.0
2018-Jul-09 04:59N 37°54' W 122°22'0 0.0
2018-Jul-09 04:20N 37°54' W 122°22'0 0.3
2018-Jul-09 04:00N 37°54' W 122°22'0 0.7
2018-Jul-09 03:31N 37°54' W 122°22'2 4.5
2018-Jul-09 03:00N 37°53' W 122°24'4 7.3
2018-Jul-09 02:30N 37°49' W 122°22'3 5.9
2018-Jul-09 02:00N 37°48' W 122°19'0 0.1
2018-Jul-09 01:30N 37°48' W 122°19'0 0.0
2018-Jul-09 01:00N 37°48' W 122°19'0 0.0
2018-Jul-09 00:30N 37°48' W 122°19'0 0.0
2018-Jul-09 00:00N 37°48' W 122°19'0 0.0
2018-Jul-08 23:30N 37°48' W 122°19'0 0.0
2018-Jul-08 23:00N 37°48' W 122°19'0 0.0
2018-Jul-08 22:30N 37°48' W 122°19'0 0.0
2018-Jul-08 21:54N 37°48' W 122°19'0 0.0
2018-Jul-08 21:30N 37°48' W 122°19'0 0.0
2018-Jul-08 21:00N 37°48' W 122°19'0 0.0
2018-Jul-08 20:30N 37°48' W 122°19'0 0.0
2018-Jul-08 20:00N 37°48' W 122°19'0 0.0
2018-Jul-08 19:30N 37°48' W 122°19'0 0.0
2018-Jul-08 19:00N 37°48' W 122°19'0 0.0
2018-Jul-08 18:30N 37°48' W 122°19'0 0.0
2018-Jul-08 18:00N 37°48' W 122°19'0 0.0
2018-Jul-08 17:30N 37°48' W 122°19'0 0.0
2018-Jul-08 17:00N 37°48' W 122°19'0 0.0
2018-Jul-08 16:30N 37°48' W 122°19'0 0.0
2018-Jul-08 16:00N 37°48' W 122°19'0 0.0
2018-Jul-08 15:30N 37°48' W 122°19'0 0.0
2018-Jul-08 15:01N 37°48' W 122°19'1 2.9
2018-Jul-08 14:31N 37°48' W 122°20'3 6.2
2018-Jul-08 14:01N 37°51' W 122°23'3 5.7
2018-Jul-08 13:31N 37°53' W 122°25'2 3.3
2018-Jul-08 13:01N 37°55' W 122°24'1 2.8
2018-Jul-08 12:29N 37°54' W 122°22'0 0.1
2018-Jul-08 11:58N 37°54' W 122°22'0 0.0
2018-Jul-08 11:28N 37°54' W 122°22'0 0.0
2018-Jul-08 10:58N 37°54' W 122°22'0 0.0
2018-Jul-08 10:28N 37°54' W 122°22'0 0.0
2018-Jul-08 09:58N 37°54' W 122°22'0 0.0
2018-Jul-08 09:28N 37°54' W 122°22'0 0.0
2018-Jul-08 08:52N 37°54' W 122°22'0 0.0
2018-Jul-08 08:28N 37°54' W 122°22'0 0.0
2018-Jul-08 07:55N 37°54' W 122°22'0 0.0
2018-Jul-08 07:28N 37°54' W 122°22'0 0.0
2018-Jul-08 06:58N 37°54' W 122°22'0 0.0
2018-Jul-08 06:28N 37°54' W 122°22'0 0.0
2018-Jul-08 05:58N 37°54' W 122°22'0 0.0
2018-Jul-08 05:28N 37°54' W 122°22'0 0.0
2018-Jul-08 04:58N 37°54' W 122°22'0 0.0
2018-Jul-08 04:28N 37°54' W 122°22'0 0.0
2018-Jul-08 03:58N 37°54' W 122°22'0 0.0
2018-Jul-08 03:28N 37°54' W 122°22'0 0.0
2018-Jul-08 02:58N 37°54' W 122°22'0 0.4
2018-Jul-08 02:30N 37°54' W 122°22'1 2.0
2018-Jul-08 01:59N 37°55' W 122°22'1 1.8
2018-Jul-08 01:28N 37°54' W 122°22'0 0.0
2018-Jul-08 00:58N 37°54' W 122°22'0 0.0
2018-Jul-08 00:28N 37°54' W 122°22'0 0.0
2018-Jul-07 23:58N 37°54' W 122°22'0 0.0
2018-Jul-07 23:28N 37°54' W 122°22'0 0.0
2018-Jul-07 22:58N 37°54' W 122°22'0 0.0
2018-Jul-07 22:28N 37°54' W 122°22'0 0.0
2018-Jul-07 21:58N 37°54' W 122°22'0 0.0
2018-Jul-07 21:28N 37°54' W 122°22'0 0.0
2018-Jul-07 20:58N 37°54' W 122°22'0 0.0
2018-Jul-07 20:28N 37°54' W 122°22'0 0.0
2018-Jul-07 19:52N 37°54' W 122°22'0 0.0
2018-Jul-07 19:25N 37°54' W 122°22'0 0.0
2018-Jul-07 18:55N 37°54' W 122°22'0 0.0
2018-Jul-07 18:25N 37°54' W 122°22'0 0.0
2018-Jul-07 17:58N 37°54' W 122°22'0 0.0
2018-Jul-07 17:28N 37°54' W 122°22'0 0.0
2018-Jul-07 16:58N 37°54' W 122°22'0 0.0
2018-Jul-07 16:28N 37°54' W 122°22'0 0.0
2018-Jul-07 15:58N 37°54' W 122°22'0 0.0
2018-Jul-07 15:16N 37°54' W 122°22'0 0.0
2018-Jul-07 14:55N 37°54' W 122°22'0 0.0
2018-Jul-07 14:28N 37°54' W 122°22'0 0.0
2018-Jul-07 13:58N 37°54' W 122°22'0 0.0
2018-Jul-07 13:28N 37°54' W 122°22'0 0.0
2018-Jul-07 12:58N 37°54' W 122°22'0 0.0
2018-Jul-07 12:28N 37°54' W 122°22'0 0.0
2018-Jul-07 11:58N 37°54' W 122°22'0 0.0
2018-Jul-07 11:28N 37°54' W 122°22'0 0.0
2018-Jul-07 10:58N 37°54' W 122°22'1 1.7
2018-Jul-07 10:30N 37°55' W 122°22'0 0.4
2018-Jul-07 10:00N 37°55' W 122°22'1 2.3
2018-Jul-07 09:30N 37°54' W 122°23'3 5.2
2018-Jul-07 09:00N 37°52' W 122°24'4 7.6
2018-Jul-07 08:30N 37°49' W 122°21'1 0.9
2018-Jul-07 07:57N 37°48' W 122°20'0 0.0
2018-Jul-07 07:30N 37°48' W 122°20'0 0.0
2018-Jul-07 07:00N 37°48' W 122°20'0 0.0
2018-Jul-07 06:30N 37°48' W 122°20'0 0.0
2018-Jul-07 06:00N 37°48' W 122°20'0 0.0
2018-Jul-07 05:27N 37°48' W 122°20'0 0.0
2018-Jul-07 05:00N 37°48' W 122°20'0 0.0
2018-Jul-07 04:30N 37°48' W 122°20'0 0.0
2018-Jul-07 03:54N 37°48' W 122°20'0 0.0
2018-Jul-07 03:30N 37°48' W 122°20'0 0.0
2018-Jul-07 03:00N 37°48' W 122°20'0 0.0
2018-Jul-07 02:30N 37°48' W 122°20'0 0.0
2018-Jul-07 02:00N 37°48' W 122°20'0 0.0
2018-Jul-07 01:24N 37°48' W 122°20'0 0.0
2018-Jul-07 01:00N 37°48' W 122°20'0 0.0
2018-Jul-07 00:30N 37°49' W 122°20'1 1.4
2018-Jul-07 00:00N 37°49' W 122°21'1 1.0
2018-Jul-06 23:30N 37°49' W 122°21'0 0.5
2018-Jul-06 23:00N 37°49' W 122°22'5 9.2
2018-Jul-06 22:30N 37°53' W 122°24'2 3.6
2018-Jul-06 22:00N 37°54' W 122°22'0 0.0
2018-Jul-06 21:30N 37°54' W 122°22'0 0.0
2018-Jul-06 21:00N 37°54' W 122°22'0 0.0
2018-Jul-06 20:30N 37°54' W 122°22'0 0.0
2018-Jul-06 19:59N 37°54' W 122°22'1 1.7
2018-Jul-06 19:30N 37°55' W 122°22'1 1.7
2018-Jul-06 19:00N 37°54' W 122°22'0 0.0
2018-Jul-06 18:30N 37°54' W 122°22'0 0.0
2018-Jul-06 18:00N 37°54' W 122°22'0 0.0
2018-Jul-06 17:30N 37°54' W 122°22'0 0.0
2018-Jul-06 17:00N 37°54' W 122°22'0 0.0
2018-Jul-06 16:30N 37°54' W 122°22'0 0.0
2018-Jul-06 15:58N 37°54' W 122°22'0 0.0
2018-Jul-06 15:30N 37°54' W 122°22'0 0.0
2018-Jul-06 15:00N 37°54' W 122°22'0 0.0
2018-Jul-06 14:30N 37°54' W 122°22'0 0.0
2018-Jul-06 14:00N 37°54' W 122°22'0 0.0
2018-Jul-06 13:30N 37°54' W 122°22'0 0.0
2018-Jul-06 13:00N 37°54' W 122°22'  

Dump ship's entire track history